sensor_id;sensor_type;location;lat;lon;timestamp;P1;durP1;ratioP1;P2;durP2;ratioP2
35917;SDS011;22011;59.912;30.300;2023-03-21T00:00:52;20.58;;;13.02;;
35917;SDS011;22011;59.912;30.300;2023-03-21T00:03:21;21.20;;;13.43;;
35917;SDS011;22011;59.912;30.300;2023-03-21T00:05:49;17.70;;;13.07;;
35917;SDS011;22011;59.912;30.300;2023-03-21T00:08:18;19.00;;;13.20;;
35917;SDS011;22011;59.912;30.300;2023-03-21T00:10:47;20.20;;;13.55;;
35917;SDS011;22011;59.912;30.300;2023-03-21T00:13:21;21.30;;;14.38;;
35917;SDS011;22011;59.912;30.300;2023-03-21T00:15:48;20.10;;;14.23;;
35917;SDS011;22011;59.912;30.300;2023-03-21T00:18:16;20.98;;;13.65;;
35917;SDS011;22011;59.912;30.300;2023-03-21T00:20:55;17.87;;;11.87;;
35917;SDS011;22011;59.912;30.300;2023-03-21T00:23:23;15.43;;;11.27;;
35917;SDS011;22011;59.912;30.300;2023-03-21T00:25:51;17.08;;;11.52;;
35917;SDS011;22011;59.912;30.300;2023-03-21T00:28:19;17.58;;;11.13;;
35917;SDS011;22011;59.912;30.300;2023-03-21T00:30:47;13.93;;;10.05;;
35917;SDS011;22011;59.912;30.300;2023-03-21T00:33:15;15.45;;;10.20;;
35917;SDS011;22011;59.912;30.300;2023-03-21T00:35:49;15.32;;;10.13;;
35917;SDS011;22011;59.912;30.300;2023-03-21T00:38:19;12.95;;;8.85;;
35917;SDS011;22011;59.912;30.300;2023-03-21T00:40:48;12.35;;;9.48;;
35917;SDS011;22011;59.912;30.300;2023-03-21T00:43:16;13.23;;;9.30;;
35917;SDS011;22011;59.912;30.300;2023-03-21T00:45:44;14.75;;;9.88;;
35917;SDS011;22011;59.912;30.300;2023-03-21T00:48:12;15.57;;;10.63;;
35917;SDS011;22011;59.912;30.300;2023-03-21T00:50:40;15.80;;;9.90;;
35917;SDS011;22011;59.912;30.300;2023-03-21T00:53:10;13.88;;;10.02;;
35917;SDS011;22011;59.912;30.300;2023-03-21T00:55:39;12.93;;;9.13;;
35917;SDS011;22011;59.912;30.300;2023-03-21T00:58:07;12.73;;;8.23;;
35917;SDS011;22011;59.912;30.300;2023-03-21T01:00:35;11.20;;;8.18;;
35917;SDS011;22011;59.912;30.300;2023-03-21T01:03:04;10.65;;;8.45;;
35917;SDS011;22011;59.912;30.300;2023-03-21T01:05:33;10.80;;;8.23;;
35917;SDS011;22011;59.912;30.300;2023-03-21T01:08:20;12.32;;;7.97;;
35917;SDS011;22011;59.912;30.300;2023-03-21T01:10:50;13.15;;;7.68;;
35917;SDS011;22011;59.912;30.300;2023-03-21T01:13:19;10.63;;;7.78;;
35917;SDS011;22011;59.912;30.300;2023-03-21T01:15:49;13.93;;;9.68;;
35917;SDS011;22011;59.912;30.300;2023-03-21T01:18:19;11.32;;;8.95;;
35917;SDS011;22011;59.912;30.300;2023-03-21T01:20:49;15.32;;;9.55;;
35917;SDS011;22011;59.912;30.300;2023-03-21T01:23:17;12.73;;;9.38;;
35917;SDS011;22011;59.912;30.300;2023-03-21T01:25:46;13.32;;;9.25;;
35917;SDS011;22011;59.912;30.300;2023-03-21T01:28:16;12.60;;;9.35;;
35917;SDS011;22011;59.912;30.300;2023-03-21T01:30:44;13.68;;;9.75;;
35917;SDS011;22011;59.912;30.300;2023-03-21T01:33:12;17.60;;;11.15;;
35917;SDS011;22011;59.912;30.300;2023-03-21T01:35:40;15.30;;;10.50;;
35917;SDS011;22011;59.912;30.300;2023-03-21T01:38:08;14.48;;;10.63;;
35917;SDS011;22011;59.912;30.300;2023-03-21T01:40:38;13.68;;;9.68;;
35917;SDS011;22011;59.912;30.300;2023-03-21T01:43:20;12.27;;;9.50;;
35917;SDS011;22011;59.912;30.300;2023-03-21T01:49:14;13.05;;;9.05;;
35917;SDS011;22011;59.912;30.300;2023-03-21T01:51:48;11.50;;;9.25;;
35917;SDS011;22011;59.912;30.300;2023-03-21T01:54:22;11.45;;;8.90;;
35917;SDS011;22011;59.912;30.300;2023-03-21T01:56:53;6.05;;;4.53;;
35917;SDS011;22011;59.912;30.300;2023-03-21T01:59:25;3.17;;;2.60;;
35917;SDS011;22011;59.912;30.300;2023-03-21T02:02:12;1.90;;;1.40;;
35917;SDS011;22011;59.912;30.300;2023-03-21T02:05:11;1.45;;;1.13;;
35917;SDS011;22011;59.912;30.300;2023-03-21T02:07:39;1.67;;;1.00;;
35917;SDS011;22011;59.912;30.300;2023-03-21T02:10:11;1.27;;;0.80;;
35917;SDS011;22011;59.912;30.300;2023-03-21T02:12:46;0.80;;;0.60;;
35917;SDS011;22011;59.912;30.300;2023-03-21T02:15:15;0.50;;;0.50;;
35917;SDS011;22011;59.912;30.300;2023-03-21T02:18:01;0.40;;;0.40;;
35917;SDS011;22011;59.912;30.300;2023-03-21T02:20:47;0.43;;;0.30;;
35917;SDS011;22011;59.912;30.300;2023-03-21T02:23:59;0.63;;;0.30;;
35917;SDS011;22011;59.912;30.300;2023-03-21T02:32:51;0.32;;;0.32;;
35917;SDS011;22011;59.912;30.300;2023-03-21T02:35:33;0.30;;;0.30;;
35917;SDS011;22011;59.912;30.300;2023-03-21T02:40:51;0.40;;;0.40;;
35917;SDS011;22011;59.912;30.300;2023-03-21T02:43:26;1.23;;;0.60;;
35917;SDS011;22011;59.912;30.300;2023-03-21T02:46:04;0.73;;;0.63;;
35917;SDS011;22011;59.912;30.300;2023-03-21T02:48:37;1.05;;;0.50;;
35917;SDS011;22011;59.912;30.300;2023-03-21T02:51:10;1.10;;;0.55;;
35917;SDS011;22011;59.912;30.300;2023-03-21T02:53:44;0.45;;;0.45;;
35917;SDS011;22011;59.912;30.300;2023-03-21T02:56:15;0.30;;;0.30;;
35917;SDS011;22011;59.912;30.300;2023-03-21T02:58:47;0.43;;;0.43;;
35917;SDS011;22011;59.912;30.300;2023-03-21T03:01:15;0.85;;;0.50;;
35917;SDS011;22011;59.912;30.300;2023-03-21T03:03:47;1.65;;;0.40;;
35917;SDS011;22011;59.912;30.300;2023-03-21T03:06:16;0.47;;;0.47;;
35917;SDS011;22011;59.912;30.300;2023-03-21T03:08:59;0.60;;;0.40;;
35917;SDS011;22011;59.912;30.300;2023-03-21T03:11:39;0.40;;;0.40;;
35917;SDS011;22011;59.912;30.300;2023-03-21T03:17:02;0.40;;;0.40;;
35917;SDS011;22011;59.912;30.300;2023-03-21T03:19:42;1.48;;;0.55;;
35917;SDS011;22011;59.912;30.300;2023-03-21T03:22:20;0.40;;;0.40;;
35917;SDS011;22011;59.912;30.300;2023-03-21T03:24:54;0.40;;;0.40;;
35917;SDS011;22011;59.912;30.300;2023-03-21T03:27:25;0.93;;;0.50;;
35917;SDS011;22011;59.912;30.300;2023-03-21T03:29:56;0.60;;;0.30;;
35917;SDS011;22011;59.912;30.300;2023-03-21T03:32:28;1.10;;;0.50;;
35917;SDS011;22011;59.912;30.300;2023-03-21T03:35:01;0.40;;;0.40;;
35917;SDS011;22011;59.912;30.300;2023-03-21T03:40:06;0.60;;;0.50;;
35917;SDS011;22011;59.912;30.300;2023-03-21T03:42:42;0.30;;;0.30;;
35917;SDS011;22011;59.912;30.300;2023-03-21T03:45:24;0.30;;;0.30;;
35917;SDS011;22011;59.912;30.300;2023-03-21T03:47:56;0.47;;;0.28;;
35917;SDS011;22011;59.912;30.300;2023-03-21T03:50:34;2.00;;;0.40;;
35917;SDS011;22011;59.912;30.300;2023-03-21T03:53:12;1.50;;;0.32;;
35917;SDS011;22011;59.912;30.300;2023-03-21T03:55:50;0.50;;;0.20;;
35917;SDS011;22011;59.912;30.300;2023-03-21T03:58:21;0.32;;;0.28;;
35917;SDS011;22011;59.912;30.300;2023-03-21T04:00:52;2.80;;;0.40;;
35917;SDS011;22011;59.912;30.300;2023-03-21T04:03:21;0.52;;;0.40;;
35917;SDS011;22011;59.912;30.300;2023-03-21T04:05:49;1.38;;;0.45;;
35917;SDS011;22011;59.912;30.300;2023-03-21T04:08:17;0.43;;;0.30;;
35917;SDS011;22011;59.912;30.300;2023-03-21T04:10:52;0.30;;;0.30;;
35917;SDS011;22011;59.912;30.300;2023-03-21T04:13:21;0.60;;;0.52;;
35917;SDS011;22011;59.912;30.300;2023-03-21T04:16:01;0.30;;;0.30;;
35917;SDS011;22011;59.912;30.300;2023-03-21T04:18:29;1.50;;;0.55;;
35917;SDS011;22011;59.912;30.300;2023-03-21T04:20:57;0.52;;;0.38;;
35917;SDS011;22011;59.912;30.300;2023-03-21T04:23:28;0.40;;;0.40;;
35917;SDS011;22011;59.912;30.300;2023-03-21T04:25:57;0.40;;;0.40;;
35917;SDS011;22011;59.912;30.300;2023-03-21T04:28:32;0.82;;;0.50;;
35917;SDS011;22011;59.912;30.300;2023-03-21T04:31:07;1.05;;;0.50;;
35917;SDS011;22011;59.912;30.300;2023-03-21T04:33:43;0.60;;;0.40;;
35917;SDS011;22011;59.912;30.300;2023-03-21T04:36:13;0.20;;;0.20;;
35917;SDS011;22011;59.912;30.300;2023-03-21T04:38:51;0.57;;;0.50;;
35917;SDS011;22011;59.912;30.300;2023-03-21T04:41:21;0.50;;;0.50;;
35917;SDS011;22011;59.912;30.300;2023-03-21T04:43:49;1.48;;;0.43;;
35917;SDS011;22011;59.912;30.300;2023-03-21T04:46:18;0.40;;;0.40;;
35917;SDS011;22011;59.912;30.300;2023-03-21T04:48:50;1.67;;;0.70;;
35917;SDS011;22011;59.912;30.300;2023-03-21T04:51:18;0.45;;;0.40;;
35917;SDS011;22011;59.912;30.300;2023-03-21T04:53:46;1.65;;;0.77;;
35917;SDS011;22011;59.912;30.300;2023-03-21T04:56:14;1.08;;;0.60;;
35917;SDS011;22011;59.912;30.300;2023-03-21T04:58:45;1.02;;;0.55;;
35917;SDS011;22011;59.912;30.300;2023-03-21T05:01:13;0.52;;;0.40;;
35917;SDS011;22011;59.912;30.300;2023-03-21T05:03:44;1.13;;;0.60;;
35917;SDS011;22011;59.912;30.300;2023-03-21T05:06:12;1.15;;;0.50;;
35917;SDS011;22011;59.912;30.300;2023-03-21T05:08:42;1.60;;;0.80;;
35917;SDS011;22011;59.912;30.300;2023-03-21T05:11:11;1.67;;;0.73;;
35917;SDS011;22011;59.912;30.300;2023-03-21T05:13:39;0.90;;;0.68;;
35917;SDS011;22011;59.912;30.300;2023-03-21T05:16:08;1.33;;;0.80;;
35917;SDS011;22011;59.912;30.300;2023-03-21T05:18:36;0.75;;;0.55;;
35917;SDS011;22011;59.912;30.300;2023-03-21T05:21:10;0.90;;;0.70;;
35917;SDS011;22011;59.912;30.300;2023-03-21T05:23:39;0.50;;;0.50;;
35917;SDS011;22011;59.912;30.300;2023-03-21T05:26:08;1.90;;;0.73;;
35917;SDS011;22011;59.912;30.300;2023-03-21T05:28:46;1.75;;;0.60;;
35917;SDS011;22011;59.912;30.300;2023-03-21T05:31:16;1.00;;;0.80;;
35917;SDS011;22011;59.912;30.300;2023-03-21T05:33:48;1.63;;;0.80;;
35917;SDS011;22011;59.912;30.300;2023-03-21T05:36:18;1.00;;;0.88;;
35917;SDS011;22011;59.912;30.300;2023-03-21T05:38:45;1.55;;;1.45;;
35917;SDS011;22011;59.912;30.300;2023-03-21T05:41:14;1.90;;;1.17;;
35917;SDS011;22011;59.912;30.300;2023-03-21T05:43:43;1.35;;;1.25;;
35917;SDS011;22011;59.912;30.300;2023-03-21T05:46:11;1.77;;;1.60;;
35917;SDS011;22011;59.912;30.300;2023-03-21T05:48:40;1.70;;;1.38;;
35917;SDS011;22011;59.912;30.300;2023-03-21T05:51:17;3.08;;;1.20;;
35917;SDS011;22011;59.912;30.300;2023-03-21T05:53:45;3.05;;;0.75;;
35917;SDS011;22011;59.912;30.300;2023-03-21T05:56:15;3.10;;;0.98;;
35917;SDS011;22011;59.912;30.300;2023-03-21T05:58:51;1.95;;;1.00;;
35917;SDS011;22011;59.912;30.300;2023-03-21T06:01:21;1.58;;;1.10;;
35917;SDS011;22011;59.912;30.300;2023-03-21T06:03:58;3.00;;;1.23;;
35917;SDS011;22011;59.912;30.300;2023-03-21T06:06:27;2.17;;;0.95;;
35917;SDS011;22011;59.912;30.300;2023-03-21T06:08:58;2.95;;;1.90;;
35917;SDS011;22011;59.912;30.300;2023-03-21T06:11:27;2.13;;;1.23;;
35917;SDS011;22011;59.912;30.300;2023-03-21T06:14:15;3.42;;;1.10;;
35917;SDS011;22011;59.912;30.300;2023-03-21T06:16:44;1.25;;;1.15;;
35917;SDS011;22011;59.912;30.300;2023-03-21T06:19:14;2.70;;;0.85;;
35917;SDS011;22011;59.912;30.300;2023-03-21T06:22:01;1.25;;;1.05;;
35917;SDS011;22011;59.912;30.300;2023-03-21T06:24:30;1.27;;;0.93;;
35917;SDS011;22011;59.912;30.300;2023-03-21T06:26:59;1.10;;;1.00;;
35917;SDS011;22011;59.912;30.300;2023-03-21T06:29:32;1.60;;;0.95;;
35917;SDS011;22011;59.912;30.300;2023-03-21T06:32:01;0.95;;;0.65;;
35917;SDS011;22011;59.912;30.300;2023-03-21T06:34:30;1.10;;;0.80;;
35917;SDS011;22011;59.912;30.300;2023-03-21T06:36:57;3.60;;;0.73;;
35917;SDS011;22011;59.912;30.300;2023-03-21T06:39:30;0.60;;;0.60;;
35917;SDS011;22011;59.912;30.300;2023-03-21T06:41:58;0.77;;;0.60;;
35917;SDS011;22011;59.912;30.300;2023-03-21T06:44:26;0.75;;;0.65;;
35917;SDS011;22011;59.912;30.300;2023-03-21T06:47:00;0.80;;;0.60;;
35917;SDS011;22011;59.912;30.300;2023-03-21T06:49:29;1.02;;;0.70;;
35917;SDS011;22011;59.912;30.300;2023-03-21T06:52:04;1.73;;;1.00;;
35917;SDS011;22011;59.912;30.300;2023-03-21T06:54:32;1.10;;;1.00;;
35917;SDS011;22011;59.912;30.300;2023-03-21T06:57:08;2.28;;;0.98;;
35917;SDS011;22011;59.912;30.300;2023-03-21T06:59:37;1.08;;;0.98;;
35917;SDS011;22011;59.912;30.300;2023-03-21T07:02:13;1.00;;;1.00;;
35917;SDS011;22011;59.912;30.300;2023-03-21T07:04:49;1.52;;;1.20;;
35917;SDS011;22011;59.912;30.300;2023-03-21T07:07:22;1.10;;;1.00;;
35917;SDS011;22011;59.912;30.300;2023-03-21T07:09:50;1.50;;;1.15;;
35917;SDS011;22011;59.912;30.300;2023-03-21T07:12:18;1.10;;;1.00;;
35917;SDS011;22011;59.912;30.300;2023-03-21T07:15:05;2.28;;;1.48;;
35917;SDS011;22011;59.912;30.300;2023-03-21T07:17:34;4.78;;;1.42;;
35917;SDS011;22011;59.912;30.300;2023-03-21T07:20:04;5.43;;;1.73;;
35917;SDS011;22011;59.912;30.300;2023-03-21T07:22:33;1.55;;;1.40;;
35917;SDS011;22011;59.912;30.300;2023-03-21T07:25:01;5.32;;;1.40;;
35917;SDS011;22011;59.912;30.300;2023-03-21T07:27:29;4.90;;;1.65;;
35917;SDS011;22011;59.912;30.300;2023-03-21T07:29:57;2.38;;;1.10;;
35917;SDS011;22011;59.912;30.300;2023-03-21T07:32:24;3.58;;;1.30;;
35917;SDS011;22011;59.912;30.300;2023-03-21T07:34:54;3.80;;;1.42;;
35917;SDS011;22011;59.912;30.300;2023-03-21T07:37:23;1.48;;;1.35;;
35917;SDS011;22011;59.912;30.300;2023-03-21T07:39:51;1.98;;;1.40;;
35917;SDS011;22011;59.912;30.300;2023-03-21T07:42:19;1.30;;;1.20;;
35917;SDS011;22011;59.912;30.300;2023-03-21T07:44:47;2.15;;;1.45;;
35917;SDS011;22011;59.912;30.300;2023-03-21T07:47:15;1.98;;;1.15;;
35917;SDS011;22011;59.912;30.300;2023-03-21T07:49:46;1.35;;;1.00;;
35917;SDS011;22011;59.912;30.300;2023-03-21T07:52:14;1.85;;;1.40;;
35917;SDS011;22011;59.912;30.300;2023-03-21T07:54:43;1.25;;;1.15;;
35917;SDS011;22011;59.912;30.300;2023-03-21T07:57:10;1.27;;;1.15;;
35917;SDS011;22011;59.912;30.300;2023-03-21T07:59:38;3.70;;;1.08;;
35917;SDS011;22011;59.912;30.300;2023-03-21T08:02:05;1.95;;;1.27;;
35917;SDS011;22011;59.912;30.300;2023-03-21T08:04:33;1.88;;;1.15;;
35917;SDS011;22011;59.912;30.300;2023-03-21T08:07:00;1.50;;;1.30;;
35917;SDS011;22011;59.912;30.300;2023-03-21T08:09:28;1.48;;;1.10;;
35917;SDS011;22011;59.912;30.300;2023-03-21T08:11:57;2.35;;;1.25;;
35917;SDS011;22011;59.912;30.300;2023-03-21T08:14:25;3.10;;;1.98;;
35917;SDS011;22011;59.912;30.300;2023-03-21T08:16:52;2.92;;;1.05;;
35917;SDS011;22011;59.912;30.300;2023-03-21T08:19:20;1.90;;;1.00;;
35917;SDS011;22011;59.912;30.300;2023-03-21T08:21:47;2.53;;;1.27;;
35917;SDS011;22011;59.912;30.300;2023-03-21T08:24:15;1.52;;;1.33;;
35917;SDS011;22011;59.912;30.300;2023-03-21T08:26:43;1.50;;;1.13;;
35917;SDS011;22011;59.912;30.300;2023-03-21T08:29:13;1.95;;;1.25;;
35917;SDS011;22011;59.912;30.300;2023-03-21T08:31:41;4.25;;;1.15;;
35917;SDS011;22011;59.912;30.300;2023-03-21T08:34:08;1.95;;;0.98;;
35917;SDS011;22011;59.912;30.300;2023-03-21T08:36:38;1.00;;;0.90;;
35917;SDS011;22011;59.912;30.300;2023-03-21T08:39:06;3.03;;;1.02;;
35917;SDS011;22011;59.912;30.300;2023-03-21T08:41:35;1.73;;;0.80;;
35917;SDS011;22011;59.912;30.300;2023-03-21T08:44:03;1.90;;;0.88;;
35917;SDS011;22011;59.912;30.300;2023-03-21T08:46:33;1.30;;;1.10;;
35917;SDS011;22011;59.912;30.300;2023-03-21T08:49:01;2.65;;;1.30;;
35917;SDS011;22011;59.912;30.300;2023-03-21T08:51:28;1.50;;;1.10;;
35917;SDS011;22011;59.912;30.300;2023-03-21T08:53:56;2.88;;;1.48;;
35917;SDS011;22011;59.912;30.300;2023-03-21T08:56:24;1.52;;;0.88;;
35917;SDS011;22011;59.912;30.300;2023-03-21T08:58:51;5.18;;;1.48;;
35917;SDS011;22011;59.912;30.300;2023-03-21T09:01:19;4.63;;;1.35;;
35917;SDS011;22011;59.912;30.300;2023-03-21T09:03:47;1.65;;;1.05;;
35917;SDS011;22011;59.912;30.300;2023-03-21T09:06:15;0.95;;;0.95;;
35917;SDS011;22011;59.912;30.300;2023-03-21T09:08:43;1.90;;;1.27;;
35917;SDS011;22011;59.912;30.300;2023-03-21T09:11:12;2.08;;;1.10;;
35917;SDS011;22011;59.912;30.300;2023-03-21T09:13:39;1.20;;;1.10;;
35917;SDS011;22011;59.912;30.300;2023-03-21T09:16:07;2.13;;;1.13;;
35917;SDS011;22011;59.912;30.300;2023-03-21T09:18:35;1.73;;;1.02;;
35917;SDS011;22011;59.912;30.300;2023-03-21T09:21:13;2.17;;;1.13;;
35917;SDS011;22011;59.912;30.300;2023-03-21T09:23:42;1.35;;;1.15;;
35917;SDS011;22011;59.912;30.300;2023-03-21T09:26:11;1.92;;;0.90;;
35917;SDS011;22011;59.912;30.300;2023-03-21T09:28:38;2.00;;;0.90;;
35917;SDS011;22011;59.912;30.300;2023-03-21T09:31:07;2.58;;;1.15;;
35917;SDS011;22011;59.912;30.300;2023-03-21T09:33:36;1.50;;;0.85;;
35917;SDS011;22011;59.912;30.300;2023-03-21T09:36:05;0.90;;;0.90;;
35917;SDS011;22011;59.912;30.300;2023-03-21T09:38:37;2.10;;;0.90;;
35917;SDS011;22011;59.912;30.300;2023-03-21T09:41:09;1.42;;;1.10;;
35917;SDS011;22011;59.912;30.300;2023-03-21T09:43:48;1.40;;;0.90;;
35917;SDS011;22011;59.912;30.300;2023-03-21T09:46:26;4.40;;;1.00;;
35917;SDS011;22011;59.912;30.300;2023-03-21T09:49:02;1.67;;;0.90;;
35917;SDS011;22011;59.912;30.300;2023-03-21T09:51:33;1.80;;;1.10;;
35917;SDS011;22011;59.912;30.300;2023-03-21T09:54:07;1.23;;;1.00;;
35917;SDS011;22011;59.912;30.300;2023-03-21T09:56:40;2.50;;;1.30;;
35917;SDS011;22011;59.912;30.300;2023-03-21T09:59:13;1.65;;;1.23;;
35917;SDS011;22011;59.912;30.300;2023-03-21T10:01:48;1.85;;;1.17;;
35917;SDS011;22011;59.912;30.300;2023-03-21T10:04:15;2.60;;;1.33;;
35917;SDS011;22011;59.912;30.300;2023-03-21T10:06:46;4.38;;;1.70;;
35917;SDS011;22011;59.912;30.300;2023-03-21T10:09:23;2.65;;;1.23;;
35917;SDS011;22011;59.912;30.300;2023-03-21T10:11:54;1.23;;;1.08;;
35917;SDS011;22011;59.912;30.300;2023-03-21T10:14:26;5.60;;;1.10;;
35917;SDS011;22011;59.912;30.300;2023-03-21T10:16:57;1.70;;;0.90;;
35917;SDS011;22011;59.912;30.300;2023-03-21T10:19:26;1.20;;;0.93;;
35917;SDS011;22011;59.912;30.300;2023-03-21T10:21:54;1.23;;;0.95;;
35917;SDS011;22011;59.912;30.300;2023-03-21T10:24:24;1.58;;;1.38;;
35917;SDS011;22011;59.912;30.300;2023-03-21T10:26:54;3.45;;;1.25;;
35917;SDS011;22011;59.912;30.300;2023-03-21T10:29:23;4.75;;;1.20;;
35917;SDS011;22011;59.912;30.300;2023-03-21T10:31:54;2.75;;;1.08;;
35917;SDS011;22011;59.912;30.300;2023-03-21T10:34:24;3.78;;;1.20;;
35917;SDS011;22011;59.912;30.300;2023-03-21T10:36:57;0.90;;;0.90;;
35917;SDS011;22011;59.912;30.300;2023-03-21T10:39:30;5.57;;;0.90;;
35917;SDS011;22011;59.912;30.300;2023-03-21T10:42:00;2.92;;;1.15;;
35917;SDS011;22011;59.912;30.300;2023-03-21T10:44:28;5.97;;;2.22;;
35917;SDS011;22011;59.912;30.300;2023-03-21T10:46:57;2.75;;;1.42;;
35917;SDS011;22011;59.912;30.300;2023-03-21T10:49:29;10.43;;;1.05;;
35917;SDS011;22011;59.912;30.300;2023-03-21T10:51:57;5.38;;;0.80;;
35917;SDS011;22011;59.912;30.300;2023-03-21T10:54:32;2.10;;;1.10;;
35917;SDS011;22011;59.912;30.300;2023-03-21T10:57:04;1.77;;;0.98;;
35917;SDS011;22011;59.912;30.300;2023-03-21T10:59:38;3.13;;;0.60;;
35917;SDS011;22011;59.912;30.300;2023-03-21T11:02:13;4.93;;;0.95;;
35917;SDS011;22011;59.912;30.300;2023-03-21T11:04:45;5.05;;;1.10;;
35917;SDS011;22011;59.912;30.300;2023-03-21T11:07:13;3.65;;;1.30;;
35917;SDS011;22011;59.912;30.300;2023-03-21T11:09:46;1.50;;;1.10;;
35917;SDS011;22011;59.912;30.300;2023-03-21T11:12:15;2.08;;;1.10;;
35917;SDS011;22011;59.912;30.300;2023-03-21T11:14:44;2.25;;;1.00;;
35917;SDS011;22011;59.912;30.300;2023-03-21T11:17:21;1.38;;;1.27;;
35917;SDS011;22011;59.912;30.300;2023-03-21T11:19:51;4.88;;;1.63;;
35917;SDS011;22011;59.912;30.300;2023-03-21T11:22:24;4.22;;;1.52;;
35917;SDS011;22011;59.912;30.300;2023-03-21T11:24:58;2.80;;;1.40;;
35917;SDS011;22011;59.912;30.300;2023-03-21T11:27:27;5.35;;;1.40;;
35917;SDS011;22011;59.912;30.300;2023-03-21T11:29:57;1.90;;;1.20;;
35917;SDS011;22011;59.912;30.300;2023-03-21T11:34:58;3.03;;;0.90;;
35917;SDS011;22011;59.912;30.300;2023-03-21T11:37:30;1.63;;;0.85;;
35917;SDS011;22011;59.912;30.300;2023-03-21T11:40:05;4.43;;;2.22;;
35917;SDS011;22011;59.912;30.300;2023-03-21T11:42:46;1.30;;;0.93;;
35917;SDS011;22011;59.912;30.300;2023-03-21T11:45:17;1.95;;;0.90;;
35917;SDS011;22011;59.912;30.300;2023-03-21T11:47:47;2.25;;;1.08;;
35917;SDS011;22011;59.912;30.300;2023-03-21T11:50:22;1.63;;;0.85;;
35917;SDS011;22011;59.912;30.300;2023-03-21T11:55:55;3.15;;;1.10;;
35917;SDS011;22011;59.912;30.300;2023-03-21T11:58:32;2.25;;;1.02;;
35917;SDS011;22011;59.912;30.300;2023-03-21T12:01:11;2.00;;;1.10;;
35917;SDS011;22011;59.912;30.300;2023-03-21T12:03:49;1.60;;;1.10;;
35917;SDS011;22011;59.912;30.300;2023-03-21T12:06:25;5.35;;;1.35;;
35917;SDS011;22011;59.912;30.300;2023-03-21T12:09:07;1.65;;;0.73;;
35917;SDS011;22011;59.912;30.300;2023-03-21T12:11:56;2.50;;;0.82;;
35917;SDS011;22011;59.912;30.300;2023-03-21T12:14:35;7.10;;;0.77;;
35917;SDS011;22011;59.912;30.300;2023-03-21T12:17:14;204.32;;;14.63;;
35917;SDS011;22011;59.912;30.300;2023-03-21T12:22:56;24.35;;;1.75;;
35917;SDS011;22011;59.912;30.300;2023-03-21T12:25:34;0.70;;;0.70;;
35917;SDS011;22011;59.912;30.300;2023-03-21T12:28:11;3.03;;;0.93;;
35917;SDS011;22011;59.912;30.300;2023-03-21T12:30:50;1.25;;;0.80;;
35917;SDS011;22011;59.912;30.300;2023-03-21T12:33:39;4.03;;;0.95;;
35917;SDS011;22011;59.912;30.300;2023-03-21T12:36:34;1.10;;;0.80;;
35917;SDS011;22011;59.912;30.300;2023-03-21T12:39:18;1.00;;;0.70;;
35917;SDS011;22011;59.912;30.300;2023-03-21T12:41:58;0.90;;;0.60;;
35917;SDS011;22011;59.912;30.300;2023-03-21T12:44:34;1.88;;;0.82;;
35917;SDS011;22011;59.912;30.300;2023-03-21T12:47:08;3.13;;;1.13;;
35917;SDS011;22011;59.912;30.300;2023-03-21T12:49:40;5.40;;;0.90;;
35917;SDS011;22011;59.912;30.300;2023-03-21T12:52:14;1.23;;;0.73;;
35917;SDS011;22011;59.912;30.300;2023-03-21T12:54:46;0.85;;;0.70;;
35917;SDS011;22011;59.912;30.300;2023-03-21T12:57:18;1.40;;;0.73;;
35917;SDS011;22011;59.912;30.300;2023-03-21T12:59:53;1.35;;;0.60;;
35917;SDS011;22011;59.912;30.300;2023-03-21T13:02:28;2.65;;;0.80;;
35917;SDS011;22011;59.912;30.300;2023-03-21T13:05:00;2.58;;;0.88;;
35917;SDS011;22011;59.912;30.300;2023-03-21T13:07:34;1.35;;;0.85;;
35917;SDS011;22011;59.912;30.300;2023-03-21T13:10:11;3.42;;;0.85;;
35917;SDS011;22011;59.912;30.300;2023-03-21T13:12:42;1.65;;;0.88;;
35917;SDS011;22011;59.912;30.300;2023-03-21T13:18:18;1.60;;;0.85;;
35917;SDS011;22011;59.912;30.300;2023-03-21T13:20:54;2.95;;;0.90;;
35917;SDS011;22011;59.912;30.300;2023-03-21T13:23:24;1.38;;;0.90;;
35917;SDS011;22011;59.912;30.300;2023-03-21T13:25:59;5.53;;;1.17;;
35917;SDS011;22011;59.912;30.300;2023-03-21T13:28:27;2.33;;;0.90;;
35917;SDS011;22011;59.912;30.300;2023-03-21T13:33:45;2.15;;;0.90;;
35917;SDS011;22011;59.912;30.300;2023-03-21T13:36:16;3.45;;;1.02;;
35917;SDS011;22011;59.912;30.300;2023-03-21T13:38:52;1.23;;;0.90;;
35917;SDS011;22011;59.912;30.300;2023-03-21T13:41:27;1.60;;;0.95;;
35917;SDS011;22011;59.912;30.300;2023-03-21T13:44:04;1.50;;;1.08;;
35917;SDS011;22011;59.912;30.300;2023-03-21T13:46:35;4.25;;;1.25;;
35917;SDS011;22011;59.912;30.300;2023-03-21T13:49:14;2.78;;;0.80;;
35917;SDS011;22011;59.912;30.300;2023-03-21T13:51:53;2.13;;;1.10;;
35917;SDS011;22011;59.912;30.300;2023-03-21T13:54:26;5.13;;;1.35;;
35917;SDS011;22011;59.912;30.300;2023-03-21T13:57:19;1.63;;;1.10;;
35917;SDS011;22011;59.912;30.300;2023-03-21T13:59:48;7.90;;;2.15;;
35917;SDS011;22011;59.912;30.300;2023-03-21T14:02:37;4.40;;;2.10;;
35917;SDS011;22011;59.912;30.300;2023-03-21T14:05:21;2.40;;;1.33;;
35917;SDS011;22011;59.912;30.300;2023-03-21T14:07:51;1.77;;;1.10;;
35917;SDS011;22011;59.912;30.300;2023-03-21T14:10:22;3.65;;;1.45;;
35917;SDS011;22011;59.912;30.300;2023-03-21T14:12:57;4.63;;;1.83;;
35917;SDS011;22011;59.912;30.300;2023-03-21T14:15:26;4.70;;;1.70;;
35917;SDS011;22011;59.912;30.300;2023-03-21T14:17:57;1.27;;;1.08;;
35917;SDS011;22011;59.912;30.300;2023-03-21T14:20:30;2.55;;;1.10;;
35917;SDS011;22011;59.912;30.300;2023-03-21T14:22:58;3.90;;;1.80;;
35917;SDS011;22011;59.912;30.300;2023-03-21T14:25:31;6.43;;;1.58;;
35917;SDS011;22011;59.912;30.300;2023-03-21T14:28:00;5.22;;;1.40;;
35917;SDS011;22011;59.912;30.300;2023-03-21T14:30:32;8.50;;;1.70;;
35917;SDS011;22011;59.912;30.300;2023-03-21T14:33:03;1.88;;;1.42;;
35917;SDS011;22011;59.912;30.300;2023-03-21T14:35:39;7.65;;;1.23;;
35917;SDS011;22011;59.912;30.300;2023-03-21T14:38:08;2.70;;;1.20;;
35917;SDS011;22011;59.912;30.300;2023-03-21T14:40:46;2.25;;;1.00;;
35917;SDS011;22011;59.912;30.300;2023-03-21T14:43:18;4.45;;;1.50;;
35917;SDS011;22011;59.912;30.300;2023-03-21T14:45:48;4.55;;;1.20;;
35917;SDS011;22011;59.912;30.300;2023-03-21T14:51:16;1.50;;;1.35;;
35917;SDS011;22011;59.912;30.300;2023-03-21T14:53:44;3.45;;;1.42;;
35917;SDS011;22011;59.912;30.300;2023-03-21T14:56:15;2.38;;;1.30;;
35917;SDS011;22011;59.912;30.300;2023-03-21T14:58:46;4.28;;;1.35;;
35917;SDS011;22011;59.912;30.300;2023-03-21T15:01:15;3.15;;;1.33;;
35917;SDS011;22011;59.912;30.300;2023-03-21T15:03:48;3.40;;;1.42;;
35917;SDS011;22011;59.912;30.300;2023-03-21T15:06:18;4.77;;;1.87;;
35917;SDS011;22011;59.912;30.300;2023-03-21T15:08:53;2.30;;;1.67;;
35917;SDS011;22011;59.912;30.300;2023-03-21T15:11:27;4.35;;;1.95;;
35917;SDS011;22011;59.912;30.300;2023-03-21T15:13:57;2.88;;;1.20;;
35917;SDS011;22011;59.912;30.300;2023-03-21T15:16:27;4.18;;;1.48;;
35917;SDS011;22011;59.912;30.300;2023-03-21T15:18:56;4.70;;;1.40;;
35917;SDS011;22011;59.912;30.300;2023-03-21T15:21:26;3.78;;;1.58;;
35917;SDS011;22011;59.912;30.300;2023-03-21T15:23:56;1.85;;;1.20;;
35917;SDS011;22011;59.912;30.300;2023-03-21T15:26:29;4.43;;;1.52;;
35917;SDS011;22011;59.912;30.300;2023-03-21T15:28:58;1.50;;;1.10;;
35917;SDS011;22011;59.912;30.300;2023-03-21T15:31:29;2.80;;;1.50;;
35917;SDS011;22011;59.912;30.300;2023-03-21T15:34:00;2.13;;;1.17;;